createdAt,value
2023-05-10T00:00:16.393Z,14.4717
2023-05-10T00:01:17.560Z,14.4537
2023-05-10T00:02:19.022Z,14.4038
2023-05-10T00:03:20.435Z,14.3904
2023-05-10T00:04:21.912Z,14.4159
2023-05-10T00:05:23.276Z,14.4298
2023-05-10T00:06:25.295Z,14.4343
2023-05-10T00:07:26.094Z,14.4109
2023-05-10T00:08:27.552Z,14.3776
2023-05-10T00:09:28.925Z,14.3818
2023-05-10T00:10:30.366Z,14.4224
2023-05-10T00:11:31.824Z,14.4309
2023-05-10T00:12:33.201Z,14.3653
2023-05-10T00:13:34.690Z,14.2832
2023-05-10T00:14:36.034Z,14.3088
2023-05-10T00:15:37.517Z,14.4256
2023-05-10T00:16:38.972Z,14.5381
2023-05-10T00:17:40.421Z,14.5638
2023-05-10T00:18:41.631Z,14.4393
2023-05-10T00:19:43.176Z,14.3235
2023-05-10T00:20:44.589Z,14.3190
2023-05-10T00:21:46.079Z,14.4299
2023-05-10T00:22:47.486Z,14.5592
2023-05-10T00:23:48.943Z,14.6065
2023-05-10T00:24:50.321Z,14.4618
2023-05-10T00:25:52.373Z,14.3010
2023-05-10T00:26:53.140Z,14.2932
2023-05-10T00:27:54.613Z,14.3946
2023-05-10T00:28:55.940Z,14.5084
2023-05-10T00:29:57.418Z,14.6101
2023-05-10T00:30:58.849Z,14.6700
2023-05-10T00:32:00.347Z,14.5185
2023-05-10T00:33:01.744Z,14.3319
2023-05-10T00:34:03.197Z,14.3118
2023-05-10T00:35:04.600Z,14.4272
2023-05-10T00:36:05.966Z,14.5274
2023-05-10T00:37:07.385Z,14.6195
2023-05-10T00:38:08.821Z,14.6019
2023-05-10T00:39:10.163Z,14.4139
2023-05-10T00:40:11.637Z,14.3052
2023-05-10T00:41:13.821Z,14.3218
2023-05-10T00:42:14.539Z,14.4276
2023-05-10T00:43:15.873Z,14.5287
2023-05-10T00:44:17.345Z,14.6366
2023-05-10T00:45:18.862Z,14.6060
2023-05-10T00:46:20.349Z,14.3996
2023-05-10T00:47:21.700Z,14.2551
2023-05-10T00:48:23.195Z,14.2981
2023-05-10T00:49:24.548Z,14.4184
2023-05-10T00:50:25.893Z,14.5312
2023-05-10T00:51:27.378Z,14.6376
2023-05-10T00:52:28.848Z,14.6147
2023-05-10T00:53:30.190Z,14.4123
2023-05-10T00:54:31.635Z,14.2950
2023-05-10T00:55:33.033Z,14.3280
2023-05-10T00:56:34.526Z,14.4386
2023-05-10T00:57:35.887Z,14.5505
2023-05-10T00:58:37.200Z,14.6461
2023-05-10T00:59:38.711Z,14.6489
2023-05-10T01:00:40.150Z,14.4271
2023-05-10T01:01:41.601Z,14.2949
2023-05-10T01:02:43.071Z,14.3101
2023-05-10T01:03:44.399Z,14.4163
2023-05-10T01:04:45.851Z,14.5174
2023-05-10T01:05:47.242Z,14.6241
2023-05-10T01:06:48.785Z,14.6872
2023-05-10T01:07:50.124Z,14.5190
2023-05-10T01:08:51.555Z,14.2795
2023-05-10T01:09:52.917Z,14.2478
2023-05-10T01:10:54.373Z,14.3319
2023-05-10T01:11:55.815Z,14.4505
2023-05-10T01:12:57.340Z,14.5761
2023-05-10T01:13:58.704Z,14.6656
2023-05-10T01:15:00.162Z,14.6228
2023-05-10T01:16:01.504Z,14.4158
2023-05-10T01:17:02.913Z,14.3227
2023-05-10T01:18:04.317Z,14.3622
2023-05-10T01:19:05.763Z,14.4627
2023-05-10T01:20:07.144Z,14.5533
2023-05-10T01:21:08.592Z,14.6445
2023-05-10T01:22:09.993Z,14.6493
2023-05-10T01:23:12.366Z,14.4238
2023-05-10T01:24:12.837Z,14.2665
2023-05-10T01:25:14.292Z,14.2823
2023-05-10T01:26:15.720Z,14.3805
2023-05-10T01:27:17.165Z,14.4809
2023-05-10T01:28:18.543Z,14.5860
2023-05-10T01:29:19.976Z,14.6680
2023-05-10T01:30:22.187Z,14.6162
2023-05-10T01:31:22.901Z,14.3693
2023-05-10T01:32:24.281Z,14.2439
2023-05-10T01:33:25.600Z,14.2940
2023-05-10T01:34:27.062Z,14.4080
2023-05-10T01:35:28.546Z,14.5057
2023-05-10T01:36:29.962Z,14.6148
2023-05-10T01:37:31.395Z,14.6783
2023-05-10T01:38:32.762Z,14.5041
2023-05-10T01:39:34.224Z,14.2790
2023-05-10T01:40:35.598Z,14.2512
2023-05-10T01:41:37.037Z,14.3317
2023-05-10T01:42:38.477Z,14.4289
2023-05-10T01:43:39.944Z,14.5223
2023-05-10T01:44:41.290Z,14.6316
2023-05-10T01:45:42.751Z,14.6948
2023-05-10T01:46:44.157Z,14.5702
2023-05-10T01:47:45.681Z,14.2999
2023-05-10T01:48:47.043Z,14.2168
2023-05-10T01:49:48.491Z,14.3040
2023-05-10T01:50:49.755Z,14.4156
2023-05-10T01:51:51.375Z,14.4995
2023-05-10T01:52:53.327Z,14.6028
2023-05-10T01:53:54.140Z,14.6731
2023-05-10T01:54:55.503Z,14.6416
2023-05-10T01:55:57.023Z,14.3770
2023-05-10T01:56:58.436Z,14.2553
2023-05-10T01:57:59.760Z,14.2837
2023-05-10T01:59:01.152Z,14.3814
2023-05-10T02:00:02.678Z,14.4789
2023-05-10T02:01:04.065Z,14.5864
2023-05-10T02:02:05.525Z,14.6699
2023-05-10T02:03:07.026Z,14.5814
2023-05-10T02:04:08.468Z,14.2945
2023-05-10T02:05:09.686Z,14.1956
2023-05-10T02:06:11.284Z,14.2697
2023-05-10T02:07:12.584Z,14.3831
2023-05-10T02:08:14.062Z,14.4901
2023-05-10T02:09:15.484Z,14.5970
2023-05-10T02:10:17.098Z,14.6799
2023-05-10T02:11:18.192Z,14.6750
2023-05-10T02:12:19.726Z,14.4049
2023-05-10T02:13:21.251Z,14.2431
2023-05-10T02:14:22.577Z,14.3035
2023-05-10T02:15:24.028Z,14.4047
2023-05-10T02:16:25.452Z,14.5006
2023-05-10T02:17:26.836Z,14.5913
2023-05-10T02:18:28.269Z,14.6682
2023-05-10T02:19:29.782Z,14.6529
2023-05-10T02:20:31.136Z,14.3640
2023-05-10T02:21:32.555Z,14.2303
2023-05-10T02:22:33.886Z,14.2820
2023-05-10T02:23:35.381Z,14.3958
2023-05-10T02:24:36.780Z,14.4997
2023-05-10T02:25:38.092Z,14.6022
2023-05-10T02:26:39.616Z,14.6774
2023-05-10T02:27:41.115Z,14.6819
2023-05-10T02:28:42.428Z,14.4193
2023-05-10T02:29:43.936Z,14.2203
2023-05-10T02:30:45.294Z,14.2275
2023-05-10T02:31:46.741Z,14.3349
2023-05-10T02:32:48.139Z,14.4343
2023-05-10T02:33:49.582Z,14.5446
2023-05-10T02:34:50.920Z,14.6417
2023-05-10T02:35:52.407Z,14.7026
2023-05-10T02:36:53.810Z,14.6849
2023-05-10T02:37:55.279Z,14.4652
2023-05-10T02:38:56.628Z,14.2853
2023-05-10T02:39:58.130Z,14.3101
2023-05-10T02:40:59.480Z,14.4079
2023-05-10T02:42:00.830Z,14.4793
2023-05-10T02:43:02.405Z,14.5747
2023-05-10T02:44:03.750Z,14.6564
2023-05-10T02:45:05.203Z,14.7129
2023-05-10T02:46:06.631Z,14.6535
2023-05-10T02:47:07.972Z,14.3712
2023-05-10T02:48:09.538Z,14.1978
2023-05-10T02:49:10.792Z,14.2382
2023-05-10T02:50:12.307Z,14.3444
2023-05-10T02:51:14.389Z,14.4391
2023-05-10T02:52:15.157Z,14.5456
2023-05-10T02:53:16.514Z,14.6187
2023-05-10T02:54:17.888Z,14.6809
2023-05-10T02:55:19.416Z,14.6581
2023-05-10T02:56:20.916Z,14.4274
2023-05-10T02:57:22.276Z,14.2657
2023-05-10T02:58:23.737Z,14.2981
2023-05-10T02:59:25.074Z,14.3926
2023-05-10T03:00:26.638Z,14.4887
2023-05-10T03:01:27.990Z,14.5867
2023-05-10T03:02:29.346Z,14.6597
2023-05-10T03:03:30.706Z,14.7051
2023-05-10T03:04:32.294Z,14.7151
2023-05-10T03:05:33.649Z,14.5238
2023-05-10T03:06:35.027Z,14.2782
2023-05-10T03:07:36.424Z,14.2613
2023-05-10T03:08:37.963Z,14.3579
2023-05-10T03:09:39.282Z,14.4459
2023-05-10T03:10:40.648Z,14.5361
2023-05-10T03:11:42.128Z,14.6193
2023-05-10T03:12:43.595Z,14.6798
2023-05-10T03:13:44.934Z,14.7201
2023-05-10T03:14:46.388Z,14.5910
2023-05-10T03:15:48.389Z,14.3842
2023-05-10T03:16:49.346Z,14.3795
2023-05-10T03:17:50.727Z,14.4369
2023-05-10T03:18:52.157Z,14.5194
2023-05-10T03:19:53.438Z,14.6086
2023-05-10T03:20:54.988Z,14.6744
2023-05-10T03:21:56.377Z,14.7018
2023-05-10T03:22:57.817Z,14.5740
2023-05-10T03:23:59.178Z,14.3213
2023-05-10T03:25:00.555Z,14.2299
2023-05-10T03:26:02.070Z,14.3133
2023-05-10T03:27:03.519Z,14.4113
2023-05-10T03:28:04.925Z,14.5174
2023-05-10T03:29:06.322Z,14.6193
2023-05-10T03:30:07.715Z,14.6929
2023-05-10T03:31:09.139Z,14.7332
2023-05-10T03:32:10.658Z,14.6147
2023-05-10T03:33:12.068Z,14.3327
2023-05-10T03:34:13.388Z,14.2395
2023-05-10T03:35:14.858Z,14.2994
2023-05-10T03:36:16.235Z,14.4019
2023-05-10T03:37:17.813Z,14.4954
2023-05-10T03:38:19.177Z,14.5901
2023-05-10T03:39:20.581Z,14.6683
2023-05-10T03:40:21.930Z,14.7223
2023-05-10T03:41:23.435Z,14.6531
2023-05-10T03:42:24.812Z,14.4142
2023-05-10T03:43:26.243Z,14.2870
2023-05-10T03:44:27.628Z,14.3316
2023-05-10T03:45:28.938Z,14.4195
2023-05-10T03:46:30.492Z,14.5297
2023-05-10T03:47:31.976Z,14.6198
2023-05-10T03:48:33.326Z,14.6806
2023-05-10T03:49:34.780Z,14.6640
2023-05-10T03:50:36.134Z,14.4271
2023-05-10T03:51:37.567Z,14.2844
2023-05-10T03:52:39.936Z,14.3051
2023-05-10T03:53:40.378Z,14.4038
2023-05-10T03:54:41.844Z,14.5012
2023-05-10T03:55:43.272Z,14.5960
2023-05-10T03:56:44.671Z,14.6673
2023-05-10T03:57:46.161Z,14.6790
2023-05-10T03:58:47.525Z,14.4624
2023-05-10T03:59:48.941Z,14.2782
2023-05-10T04:00:50.326Z,14.2891
2023-05-10T04:01:51.814Z,14.3722
2023-05-10T04:02:53.314Z,14.4650
2023-05-10T04:03:54.750Z,14.5844
2023-05-10T04:04:56.005Z,14.6552
2023-05-10T04:05:57.532Z,14.6749
2023-05-10T04:06:58.910Z,14.4758
2023-05-10T04:08:00.402Z,14.3094
2023-05-10T04:09:02.375Z,14.3329
2023-05-10T04:10:03.214Z,14.4329
2023-05-10T04:11:04.492Z,14.5211
2023-05-10T04:12:06.491Z,14.6268
2023-05-10T04:13:07.699Z,14.6929
2023-05-10T04:14:08.994Z,14.6792
2023-05-10T04:15:10.283Z,14.4253
2023-05-10T04:16:11.823Z,14.2553
2023-05-10T04:17:13.169Z,14.2844
2023-05-10T04:18:14.621Z,14.3905
2023-05-10T04:19:16.028Z,14.4796
2023-05-10T04:20:17.625Z,14.5927
2023-05-10T04:21:18.825Z,14.6806
2023-05-10T04:22:20.294Z,14.7022
2023-05-10T04:23:21.765Z,14.5282
2023-05-10T04:24:23.155Z,14.3277
2023-05-10T04:25:24.588Z,14.3456
2023-05-10T04:26:25.923Z,14.4305
2023-05-10T04:27:27.372Z,14.5098
2023-05-10T04:28:28.773Z,14.6142
2023-05-10T04:29:30.201Z,14.6931
2023-05-10T04:30:31.676Z,14.7064
2023-05-10T04:31:33.133Z,14.5045
2023-05-10T04:32:35.040Z,14.3004
2023-05-10T04:33:35.925Z,14.3018
2023-05-10T04:34:37.382Z,14.3969
2023-05-10T04:35:38.850Z,14.4870
2023-05-10T04:36:40.224Z,14.6010
2023-05-10T04:37:41.673Z,14.6903
2023-05-10T04:38:43.025Z,14.7339
2023-05-10T04:39:45.459Z,14.6146
2023-05-10T04:40:45.899Z,14.3728
2023-05-10T04:41:47.327Z,14.3093
2023-05-10T04:42:48.745Z,14.3991
2023-05-10T04:43:50.178Z,14.4985
2023-05-10T04:44:51.586Z,14.6088
2023-05-10T04:45:53.036Z,14.7113
2023-05-10T04:46:54.511Z,14.7318
2023-05-10T04:47:56.001Z,14.4864
2023-05-10T04:48:57.334Z,14.2916
2023-05-10T04:49:58.826Z,14.2935
2023-05-10T04:51:00.142Z,14.4124
2023-05-10T04:52:01.671Z,14.5258
2023-05-10T04:53:03.071Z,14.6393
2023-05-10T04:54:06.626Z,14.7216
2023-05-10T04:55:06.907Z,14.6544
2023-05-10T04:56:07.266Z,14.3999
2023-05-10T04:57:08.670Z,14.2774
2023-05-10T04:58:10.128Z,14.3407
2023-05-10T04:59:11.583Z,14.4647
2023-05-10T05:00:12.999Z,14.5844
2023-05-10T05:01:14.383Z,14.6904
2023-05-10T05:02:15.890Z,14.6911
2023-05-10T05:03:17.266Z,14.4614
2023-05-10T05:04:18.618Z,14.3198
2023-05-10T05:05:20.068Z,14.3513
2023-05-10T05:06:21.526Z,14.4683
2023-05-10T05:07:22.845Z,14.5903
2023-05-10T05:08:24.385Z,14.6988
2023-05-10T05:09:25.728Z,14.7705
2023-05-10T05:10:27.134Z,14.6219
2023-05-10T05:11:29.465Z,14.3642
2023-05-10T05:12:30.034Z,14.2639
2023-05-10T05:13:31.458Z,14.3215
2023-05-10T05:14:32.849Z,14.4595
2023-05-10T05:15:34.265Z,14.5872
2023-05-10T05:16:35.865Z,14.6977
2023-05-10T05:17:37.219Z,14.6574
2023-05-10T05:18:38.584Z,14.4351
2023-05-10T05:19:39.990Z,14.3163
2023-05-10T05:20:42.557Z,14.3382
2023-05-10T05:21:42.867Z,14.4423
2023-05-10T05:22:44.298Z,14.5842
2023-05-10T05:23:45.678Z,14.7092
2023-05-10T05:24:47.198Z,14.6261
2023-05-10T05:25:48.525Z,14.3870
2023-05-10T05:26:50.057Z,14.2838
2023-05-10T05:27:51.423Z,14.3278
2023-05-10T05:28:52.767Z,14.4513
2023-05-10T05:29:54.239Z,14.5888
2023-05-10T05:30:55.859Z,14.7003
2023-05-10T05:31:57.237Z,14.6266
2023-05-10T05:32:58.541Z,14.3534
2023-05-10T05:33:59.956Z,14.2369
2023-05-10T05:35:01.449Z,14.2511
2023-05-10T05:36:02.876Z,14.3760
2023-05-10T05:37:04.252Z,14.5339
2023-05-10T05:38:05.653Z,14.6637
2023-05-10T05:39:06.924Z,14.7280
2023-05-10T05:40:08.373Z,14.5163
2023-05-10T05:41:09.937Z,14.3286
2023-05-10T05:42:11.409Z,14.3085
2023-05-10T05:43:13.230Z,14.4061
2023-05-10T05:44:14.071Z,14.5587
2023-05-10T05:45:15.896Z,14.6831
2023-05-10T05:46:17.033Z,14.6295
2023-05-10T05:47:18.462Z,14.3902
2023-05-10T05:48:19.802Z,14.2599
2023-05-10T05:49:21.264Z,14.2770
2023-05-10T05:50:22.649Z,14.3756
2023-05-10T05:51:24.142Z,14.5294
2023-05-10T05:52:25.602Z,14.6552
2023-05-10T05:53:26.905Z,14.6784
2023-05-10T05:54:28.330Z,14.4440
2023-05-10T05:55:29.687Z,14.2550
2023-05-10T05:56:31.251Z,14.2259
2023-05-10T05:57:32.668Z,14.3091
2023-05-10T05:58:34.189Z,14.4594
2023-05-10T05:59:35.480Z,14.6030
2023-05-10T06:00:36.880Z,14.6918
2023-05-10T06:01:38.371Z,14.6041
2023-05-10T06:02:39.940Z,14.5200
2023-05-10T06:03:41.208Z,14.5894
2023-05-10T06:04:44.689Z,14.6872
2023-05-10T06:05:44.110Z,14.8353
2023-05-10T06:06:45.405Z,15.0403
2023-05-10T06:07:46.852Z,15.3959
2023-05-10T06:08:48.219Z,15.9607
2023-05-10T06:09:49.686Z,16.6624
2023-05-10T06:10:51.096Z,17.4812
2023-05-10T06:11:52.543Z,18.1123
2023-05-10T06:12:53.928Z,18.3009
2023-05-10T06:13:55.253Z,18.1605
2023-05-10T06:14:56.731Z,17.9460
2023-05-10T06:15:58.144Z,17.8867
2023-05-10T06:16:59.626Z,18.1302
2023-05-10T06:18:01.046Z,18.5573
2023-05-10T06:19:02.333Z,18.9714
2023-05-10T06:20:03.856Z,19.3810
2023-05-10T06:21:05.186Z,19.4909
2023-05-10T06:22:06.719Z,19.4460
2023-05-10T06:23:08.043Z,19.4646
2023-05-10T06:24:09.655Z,19.8042
2023-05-10T06:25:10.879Z,20.2443
2023-05-10T06:26:12.309Z,20.4509
2023-05-10T06:27:13.812Z,20.2570
2023-05-10T06:28:15.234Z,19.9904
2023-05-10T06:29:16.609Z,20.0977
2023-05-10T06:30:18.222Z,20.4525
2023-05-10T06:31:19.518Z,20.8775
2023-05-10T06:32:20.920Z,21.2596
2023-05-10T06:33:22.311Z,20.9224
2023-05-10T06:34:23.755Z,20.3905
2023-05-10T06:35:25.159Z,20.2655
2023-05-10T06:36:26.689Z,20.5470
2023-05-10T06:37:28.147Z,20.9399
2023-05-10T06:38:29.641Z,21.3254
2023-05-10T06:39:30.878Z,21.3628
2023-05-10T06:40:32.847Z,20.9052
2023-05-10T06:41:33.689Z,20.6050
2023-05-10T06:42:35.311Z,20.6475
2023-05-10T06:43:36.631Z,20.9486
2023-05-10T06:44:37.922Z,21.2963
2023-05-10T06:45:39.346Z,21.2538
2023-05-10T06:46:40.772Z,20.8923
2023-05-10T06:47:42.255Z,20.7719
2023-05-10T06:48:43.718Z,20.9174
2023-05-10T06:49:45.009Z,21.2548
2023-05-10T06:50:46.534Z,21.3358
2023-05-10T06:51:47.913Z,20.9886
2023-05-10T06:52:50.214Z,20.8257
2023-05-10T06:53:51.142Z,20.9994
2023-05-10T06:54:52.216Z,21.2857
2023-05-10T06:55:53.586Z,21.2321
2023-05-10T06:56:55.057Z,20.9466
2023-05-10T06:57:56.494Z,20.9072
2023-05-10T06:58:57.916Z,21.1419
2023-05-10T06:59:59.286Z,21.3829
2023-05-10T07:01:00.804Z,21.3184
2023-05-10T07:02:02.180Z,21.0578
2023-05-10T07:03:03.644Z,21.1036
2023-05-10T07:04:04.960Z,21.3307
2023-05-10T07:05:06.474Z,21.4776
2023-05-10T07:06:11.356Z,21.1931
2023-05-10T07:07:09.323Z,20.9752
2023-05-10T07:08:10.747Z,21.1173
2023-05-10T07:09:12.213Z,21.3592
2023-05-10T07:10:13.531Z,21.4543
2023-05-10T07:11:14.998Z,21.1434
2023-05-10T07:12:16.729Z,21.0471
2023-05-10T07:13:17.915Z,21.2264
2023-05-10T07:14:19.287Z,21.4417
2023-05-10T07:15:20.763Z,21.4446
2023-05-10T07:16:22.058Z,21.1977
2023-05-10T07:17:23.593Z,21.1701
2023-05-10T07:18:24.926Z,21.3008
2023-05-10T07:19:26.388Z,21.0962
2023-05-10T07:20:27.814Z,20.3289
2023-05-10T07:21:29.293Z,19.5028
2023-05-10T07:22:30.596Z,19.1152
2023-05-10T07:23:32.123Z,18.9820
2023-05-10T07:24:33.456Z,18.9729
2023-05-10T07:25:34.932Z,18.8985
2023-05-10T07:26:36.404Z,18.3972
2023-05-10T07:27:37.743Z,18.1140
2023-05-10T07:28:39.300Z,18.1097
2023-05-10T07:29:40.615Z,18.1996
2023-05-10T07:30:42.089Z,18.3476
2023-05-10T07:31:43.433Z,18.4345
2023-05-10T07:32:44.896Z,18.0759
2023-05-10T07:33:46.283Z,17.7987
2023-05-10T07:34:47.732Z,17.7806
2023-05-10T07:35:49.138Z,17.9017
2023-05-10T07:36:50.571Z,18.0955
2023-05-10T07:37:51.997Z,18.2877
2023-05-10T07:38:53.433Z,18.2731
2023-05-10T07:39:54.922Z,17.8407
2023-05-10T07:40:56.314Z,17.5884
2023-05-10T07:41:57.589Z,17.6069
2023-05-10T07:42:59.162Z,17.7182
2023-05-10T07:44:00.589Z,17.8542
2023-05-10T07:45:02.032Z,18.0429
2023-05-10T07:46:03.501Z,18.2067
2023-05-10T07:47:04.803Z,17.9889
2023-05-10T07:48:06.387Z,17.5467
2023-05-10T07:49:07.585Z,17.4254
2023-05-10T07:50:09.217Z,17.5124
2023-05-10T07:51:10.630Z,17.6748
2023-05-10T07:52:12.051Z,17.8574
2023-05-10T07:53:13.424Z,18.0220
2023-05-10T07:54:14.887Z,18.0860
2023-05-10T07:55:16.533Z,17.6906
2023-05-10T07:56:17.741Z,17.3751
2023-05-10T07:57:19.013Z,17.3599
2023-05-10T07:58:20.498Z,17.4692
2023-05-10T07:59:21.980Z,17.6079
2023-05-10T08:00:23.470Z,17.7939
2023-05-10T08:01:24.819Z,18.0062
2023-05-10T08:02:26.407Z,18.1040
2023-05-10T08:03:27.759Z,17.7331
2023-05-10T08:04:29.372Z,17.3975
2023-05-10T08:05:30.535Z,17.3493
2023-05-10T08:06:32.062Z,17.4955
2023-05-10T08:07:33.399Z,17.7273
2023-05-10T08:08:34.796Z,17.9805
2023-05-10T08:09:36.447Z,18.2089
2023-05-10T08:10:37.708Z,18.1971
2023-05-10T08:11:39.092Z,17.7844
2023-05-10T08:12:40.622Z,17.6551
2023-05-10T08:13:41.825Z,17.7404
2023-05-10T08:14:43.706Z,17.9148
2023-05-10T08:15:44.798Z,18.1235
2023-05-10T08:16:46.244Z,18.3377
2023-05-10T08:17:47.595Z,18.3109
2023-05-10T08:18:49.118Z,17.9060
2023-05-10T08:19:50.416Z,17.7073
2023-05-10T08:20:51.821Z,17.7453
2023-05-10T08:21:53.357Z,17.8937
2023-05-10T08:22:54.823Z,18.0702
2023-05-10T08:23:56.245Z,18.2547
2023-05-10T08:24:57.669Z,18.4125
2023-05-10T08:25:59.034Z,18.1931
2023-05-10T08:27:00.496Z,17.8053
2023-05-10T08:28:01.876Z,17.7195
2023-05-10T08:29:03.291Z,17.7824
2023-05-10T08:30:04.726Z,17.8932
2023-05-10T08:31:06.289Z,18.0109
2023-05-10T08:32:07.623Z,18.1551
2023-05-10T08:33:08.985Z,18.2011
2023-05-10T08:34:10.417Z,17.8170
2023-05-10T08:35:11.841Z,17.6155
2023-05-10T08:36:13.355Z,17.6697
2023-05-10T08:37:14.792Z,17.8208
2023-05-10T08:38:16.098Z,18.0245
2023-05-10T08:39:29.383Z,18.2385
2023-05-10T08:40:19.071Z,18.4505
2023-05-10T08:41:20.440Z,18.1563
2023-05-10T08:42:22.185Z,17.7319
2023-05-10T08:43:23.225Z,17.6136
2023-05-10T08:44:24.689Z,17.6661
2023-05-10T08:45:26.196Z,17.7639
2023-05-10T08:46:27.715Z,17.9189
2023-05-10T08:47:29.053Z,18.0996
2023-05-10T08:48:30.726Z,18.3162
2023-05-10T08:49:32.011Z,18.1560
2023-05-10T08:50:33.432Z,17.6640
2023-05-10T08:51:34.835Z,17.4481
2023-05-10T08:52:36.446Z,17.4772
2023-05-10T08:53:37.695Z,17.6200
2023-05-10T08:54:39.080Z,17.7953
2023-05-10T08:55:40.321Z,17.9996
2023-05-10T08:56:42.055Z,18.2101
2023-05-10T08:57:43.373Z,18.1430
2023-05-10T08:58:44.722Z,17.6311
2023-05-10T08:59:46.221Z,17.3731
2023-05-10T09:00:48.158Z,17.3981
2023-05-10T09:01:49.124Z,17.5076
2023-05-10T09:02:50.689Z,17.6446
2023-05-10T09:03:51.811Z,17.8433
2023-05-10T09:04:53.354Z,18.0499
2023-05-10T09:05:54.729Z,18.1624
2023-05-10T09:06:56.194Z,17.8078
2023-05-10T09:07:57.533Z,17.5043
2023-05-10T09:08:59.291Z,17.5234
2023-05-10T09:10:00.372Z,17.7085
2023-05-10T09:11:01.761Z,17.9392
2023-05-10T09:12:03.305Z,18.1682
2023-05-10T09:13:04.840Z,18.4285
2023-05-10T09:14:06.045Z,18.2746
2023-05-10T09:15:07.460Z,17.8149
2023-05-10T09:16:20.439Z,17.6983
2023-05-10T09:17:10.503Z,17.7790
2023-05-10T09:18:11.857Z,17.9416
2023-05-10T09:19:13.385Z,18.1308
2023-05-10T09:20:14.494Z,18.3501
2023-05-10T09:21:16.217Z,18.4054
2023-05-10T09:22:17.456Z,17.9162
2023-05-10T09:23:18.761Z,17.6127
2023-05-10T09:24:20.348Z,17.6634
2023-05-10T09:25:21.793Z,17.7969
2023-05-10T09:26:23.058Z,17.9597
2023-05-10T09:27:24.776Z,18.1542
2023-05-10T09:28:26.133Z,18.3519
2023-05-10T09:29:27.615Z,18.1800
2023-05-10T09:30:28.786Z,17.6821
2023-05-10T09:31:30.589Z,17.4524
2023-05-10T09:32:31.779Z,17.4849
2023-05-10T09:33:33.402Z,17.6105
2023-05-10T09:34:34.531Z,17.8364
2023-05-10T09:35:35.848Z,18.0998
2023-05-10T09:36:37.707Z,18.3679
2023-05-10T09:37:38.679Z,18.2254
2023-05-10T09:38:40.405Z,17.8127
2023-05-10T09:39:41.631Z,17.6781
2023-05-10T09:40:43.038Z,17.7072
2023-05-10T09:41:44.532Z,17.8444
2023-05-10T09:42:46.231Z,18.0541
2023-05-10T09:43:47.525Z,18.3194
2023-05-10T09:44:49.109Z,18.4263
2023-05-10T09:45:50.174Z,18.0238
2023-05-10T09:46:51.746Z,17.7126
2023-05-10T09:47:53.214Z,17.7370
2023-05-10T09:48:54.503Z,17.9054
2023-05-10T09:49:55.864Z,18.1099
2023-05-10T09:50:57.395Z,18.3860
2023-05-10T09:51:58.822Z,18.5439
2023-05-10T09:53:00.195Z,18.2023
2023-05-10T09:54:01.683Z,17.8366
2023-05-10T09:55:02.993Z,17.7276
2023-05-10T09:56:04.514Z,17.8061
2023-05-10T09:57:05.931Z,18.0336
2023-05-10T09:58:07.360Z,18.3811
2023-05-10T09:59:08.895Z,18.6432
2023-05-10T10:00:10.143Z,18.4150
2023-05-10T10:01:12.015Z,17.9459
2023-05-10T10:02:13.186Z,17.7209
2023-05-10T10:03:14.457Z,17.7864
2023-05-10T10:04:15.916Z,17.9387
2023-05-10T10:05:17.717Z,18.1202
2023-05-10T10:06:26.802Z,18.3719
2023-05-10T10:07:20.180Z,18.3976
2023-05-10T10:08:22.334Z,17.9594
2023-05-10T10:09:23.210Z,17.6148
2023-05-10T10:10:24.336Z,17.6106
2023-05-10T10:11:25.782Z,17.7145
2023-05-10T10:12:27.338Z,17.8493
2023-05-10T10:13:28.900Z,18.0543
2023-05-10T10:14:30.250Z,18.2889
2023-05-10T10:15:31.555Z,18.2522
2023-05-10T10:16:33.023Z,17.8645
2023-05-10T10:17:34.394Z,17.6842
2023-05-10T10:18:35.781Z,17.7250
2023-05-10T10:19:37.604Z,17.8927
2023-05-10T10:20:38.587Z,18.1344
2023-05-10T10:21:40.161Z,18.4117
2023-05-10T10:22:41.494Z,18.4138
2023-05-10T10:23:43.074Z,18.0051
2023-05-10T10:24:44.508Z,17.7111
2023-05-10T10:25:45.814Z,17.7171
2023-05-10T10:26:47.262Z,17.8652
2023-05-10T10:27:48.604Z,18.0819
2023-05-10T10:28:50.323Z,18.3685
2023-05-10T10:29:51.511Z,18.3629
2023-05-10T10:30:53.041Z,17.9855
2023-05-10T10:31:54.297Z,17.7210
2023-05-10T10:32:55.699Z,17.7159
2023-05-10T10:33:57.176Z,17.8664
2023-05-10T10:34:58.738Z,18.1448
2023-05-10T10:35:59.968Z,18.4246
2023-05-10T10:37:01.445Z,18.5204
2023-05-10T10:38:02.859Z,18.1572
2023-05-10T10:39:04.607Z,17.8149
2023-05-10T10:40:05.714Z,17.7839
2023-05-10T10:41:07.176Z,17.9240
2023-05-10T10:42:08.454Z,18.1444
2023-05-10T10:43:10.154Z,18.4333
2023-05-10T10:44:11.735Z,18.5930
2023-05-10T10:45:12.903Z,18.2204
2023-05-10T10:46:14.284Z,17.7969
2023-05-10T10:47:15.625Z,17.7393
2023-05-10T10:48:17.092Z,17.8747
2023-05-10T10:49:18.611Z,18.1160
2023-05-10T10:50:20.035Z,18.4367
2023-05-10T10:51:21.342Z,18.5673
2023-05-10T10:52:22.788Z,18.1987
2023-05-10T10:53:24.281Z,17.8546
2023-05-10T10:54:25.716Z,17.8322
2023-05-10T10:55:27.197Z,17.9592
2023-05-10T10:56:28.480Z,18.1969
2023-05-10T10:57:29.910Z,18.5066
2023-05-10T10:58:31.257Z,18.6440
2023-05-10T10:59:32.734Z,18.3090
2023-05-10T11:00:34.220Z,18.0094
2023-05-10T11:01:35.700Z,18.0059
2023-05-10T11:02:37.105Z,18.1800
2023-05-10T11:03:38.400Z,18.4382
2023-05-10T11:04:40.122Z,18.7369
2023-05-10T11:05:41.527Z,18.7135
2023-05-10T11:06:42.617Z,18.2497
2023-05-10T11:07:44.413Z,17.9406
2023-05-10T11:08:45.746Z,17.9808
2023-05-10T11:09:48.166Z,18.1700
2023-05-10T11:10:48.642Z,18.4133
2023-05-10T11:11:50.230Z,18.6976
2023-05-10T11:12:51.142Z,18.8229
2023-05-10T11:13:52.663Z,18.4843
2023-05-10T11:14:54.038Z,18.1861
2023-05-10T11:15:55.528Z,18.1845
2023-05-10T11:16:56.924Z,18.3483
2023-05-10T11:17:58.340Z,18.5643
2023-05-10T11:18:59.771Z,18.7905
2023-05-10T11:20:01.170Z,18.5896
2023-05-10T11:21:02.664Z,18.2200
2023-05-10T11:22:04.069Z,18.1838
2023-05-10T11:23:05.432Z,18.3619
2023-05-10T11:24:07.103Z,18.6156
2023-05-10T11:25:08.500Z,18.8287
2023-05-10T11:26:09.582Z,18.5335
2023-05-10T11:27:11.069Z,18.2361
2023-05-10T11:28:12.466Z,18.2121
2023-05-10T11:29:13.976Z,18.3439
2023-05-10T11:30:15.877Z,18.5282
2023-05-10T11:31:16.945Z,18.7722
2023-05-10T11:32:18.161Z,18.7022
2023-05-10T11:33:19.610Z,18.2662
2023-05-10T11:34:20.992Z,18.0633
2023-05-10T11:35:22.446Z,18.0994
2023-05-10T11:36:23.871Z,18.2154
2023-05-10T11:37:25.305Z,18.4229
2023-05-10T11:38:26.735Z,18.5986
2023-05-10T11:39:28.106Z,18.2397
2023-05-10T11:40:29.548Z,17.8412
2023-05-10T11:41:31.093Z,17.7256
2023-05-10T11:42:32.340Z,17.8278
2023-05-10T11:43:33.984Z,18.0153
2023-05-10T11:44:35.294Z,18.2861
2023-05-10T11:45:36.633Z,18.4960
2023-05-10T11:46:38.446Z,18.1009
2023-05-10T11:47:40.794Z,17.6987
2023-05-10T11:48:40.970Z,17.6291
2023-05-10T11:49:42.316Z,17.7678
2023-05-10T11:50:43.884Z,18.0453
2023-05-10T11:51:45.198Z,18.3945
2023-05-10T11:52:46.941Z,18.5898
2023-05-10T11:53:48.048Z,18.1787
2023-05-10T11:54:49.474Z,17.7964
2023-05-10T11:55:50.931Z,17.7518
2023-05-10T11:56:52.398Z,17.9402
2023-05-10T11:57:54.115Z,18.2255
2023-05-10T11:58:55.142Z,18.5713
2023-05-10T11:59:56.659Z,18.7975
2023-05-10T12:00:57.995Z,18.3986
2023-05-10T12:01:59.826Z,18.0817
2023-05-10T12:03:01.180Z,18.0624
2023-05-10T12:04:02.493Z,18.1899
2023-05-10T12:05:04.721Z,18.4593
2023-05-10T12:06:05.098Z,18.7310
2023-05-10T12:07:06.653Z,18.4305
2023-05-10T12:08:08.001Z,18.0014
2023-05-10T12:09:09.539Z,17.9244
2023-05-10T12:10:10.802Z,18.0644
2023-05-10T12:11:12.315Z,18.2935
2023-05-10T12:12:13.724Z,18.5684
2023-05-10T12:13:15.200Z,18.7936
2023-05-10T12:14:16.514Z,18.4066
2023-05-10T12:15:17.974Z,17.9865
2023-05-10T12:16:19.633Z,17.8956
2023-05-10T12:17:20.795Z,17.9794
2023-05-10T12:18:22.207Z,18.1386
2023-05-10T12:19:23.620Z,18.4201
2023-05-10T12:20:25.030Z,18.6696
2023-05-10T12:21:26.499Z,18.2961
2023-05-10T12:22:27.972Z,17.8396